Time;durP1;ratioP1;P1;durP2;ratioP2;P2;SDS_P1;SDS_P2;PMS_P1;PMS_P2;Temp;Humidity;BMP_temperature;BMP_pressure;BME280_temperature;BME280_humidity;BME280_pressure;Samples;Min_cycle;Max_cycle;Signal;HPM_P1;HPM_P2
2022/10/10 00:02:27;;;;;;;0.20;0.10;;;21.30;99.90;;;;;;21242267;28;20386;-70
2022/10/10 00:12:31;;;;;;;0.20;0.00;;;21.20;99.90;;;;;;21243417;28;20401;-71
2022/10/10 00:22:36;;;;;;;0.20;0.00;;;20.70;99.90;;;;;;21244562;28;20387;-71
2022/10/10 00:32:39;;;;;;;0.20;0.00;;;20.80;99.90;;;;;;21245503;28;20539;-71
2022/10/10 00:42:45;;;;;;;0.20;0.00;;;20.30;99.90;;;;;;21259230;28;20424;-71
2022/10/10 00:52:49;;;;;;;0.20;0.00;;;20.40;99.90;;;;;;21258515;28;20406;-71
2022/10/10 01:02:54;;;;;;;0.20;0.00;;;20.20;99.90;;;;;;21257570;28;20420;-71
2022/10/10 01:13:10;;;;;;;0.20;0.10;;;20.00;99.90;;;;;;21256896;28;20395;-71
2022/10/10 01:23:44;;;;;;;0.20;0.00;;;20.00;99.90;;;;;;21238495;28;20416;-71
2022/10/10 01:33:56;;;;;;;0.20;0.00;;;19.90;99.90;;;;;;21254863;28;20402;-70
2022/10/10 01:44:00;;;;;;;0.20;0.00;;;19.80;99.90;;;;;;21253598;28;20386;-70
2022/10/10 01:54:20;;;;;;;0.20;0.00;;;19.70;99.90;;;;;;21254153;28;20399;-72
2022/10/10 02:04:34;;;;;;;0.20;0.00;;;19.50;99.90;;;;;;21253350;28;20428;-72
2022/10/10 02:14:42;;;;;;;0.20;0.00;;;19.40;99.90;;;;;;21252313;28;20484;-72
2022/10/10 02:24:46;;;;;;;0.20;0.10;;;19.30;99.90;;;;;;21251160;28;20391;-72
2022/10/10 02:34:55;;;;;;;0.20;0.00;;;19.30;99.90;;;;;;21249789;28;20394;-72
2022/10/10 02:45:00;;;;;;;0.20;0.00;;;19.20;99.90;;;;;;21231484;28;20399;-72
2022/10/10 02:55:06;;;;;;;0.20;0.10;;;19.20;99.90;;;;;;21230610;28;20436;-72
2022/10/10 03:05:10;;;;;;;0.20;0.00;;;19.10;99.90;;;;;;21248230;28;20406;-71
2022/10/10 03:15:15;;;;;;;0.20;0.00;;;19.10;99.90;;;;;;21247695;28;20383;-72
2022/10/10 03:25:19;;;;;;;0.20;0.00;;;19.00;99.90;;;;;;21247226;28;20390;-72
2022/10/10 03:35:24;;;;;;;0.20;0.00;;;18.80;99.90;;;;;;21246104;28;20438;-71
2022/10/10 03:45:28;;;;;;;0.20;0.00;;;18.60;99.90;;;;;;21245387;28;20416;-71
2022/10/10 03:55:33;;;;;;;0.20;0.00;;;18.30;99.90;;;;;;21245332;28;20395;-72
2022/10/10 04:05:38;;;;;;;0.20;0.10;;;18.10;99.90;;;;;;21244886;28;20402;-71
2022/10/10 04:15:43;;;;;;;0.20;0.10;;;18.00;99.90;;;;;;21260339;28;20419;-71
2022/10/10 04:25:50;;;;;;;0.20;0.10;;;17.80;99.90;;;;;;21260480;28;20402;-71
2022/10/10 04:35:55;;;;;;;0.20;0.10;;;17.80;99.90;;;;;;21241612;28;20816;-71
2022/10/10 04:45:59;;;;;;;0.20;0.10;;;17.60;99.90;;;;;;21239844;28;20413;-71
2022/10/10 04:56:04;;;;;;;0.20;0.00;;;17.60;99.90;;;;;;21257577;28;20455;-72
2022/10/10 05:06:08;;;;;;;0.20;0.00;;;17.60;99.90;;;;;;21256391;28;20378;-71
2022/10/10 05:16:13;;;;;;;0.20;0.00;;;17.50;99.90;;;;;;21256118;28;20420;-71
2022/10/10 05:26:18;;;;;;;0.20;0.07;;;17.60;99.90;;;;;;21252534;28;20383;-71
2022/10/10 05:36:23;;;;;;;0.20;0.00;;;17.70;99.90;;;;;;21252162;28;20394;-72
2022/10/10 05:46:27;;;;;;;0.20;0.00;;;17.90;99.90;;;;;;21251040;28;20391;-70
2022/10/10 05:56:32;;;;;;;0.20;0.00;;;18.10;99.90;;;;;;21243579;28;20451;-73
2022/10/10 06:06:36;;;;;;;0.20;0.00;;;18.10;99.90;;;;;;21244539;28;20399;-72
2022/10/10 06:16:44;;;;;;;0.20;0.03;;;18.00;99.90;;;;;;21230505;28;20402;-71
2022/10/10 06:26:47;;;;;;;0.20;0.00;;;18.10;99.90;;;;;;21247146;28;20402;-72
2022/10/10 06:36:52;;;;;;;0.20;0.10;;;18.00;99.90;;;;;;21245815;28;20394;-71
2022/10/10 06:46:56;;;;;;;0.20;0.00;;;18.30;99.90;;;;;;21246063;28;20383;-75
2022/10/10 06:57:02;;;;;;;0.20;0.00;;;18.60;99.90;;;;;;21244678;28;20391;-69
2022/10/10 07:07:06;;;;;;;0.20;0.00;;;18.90;99.90;;;;;;21226133;28;20411;-73
2022/10/10 07:17:11;;;;;;;0.20;0.00;;;19.30;99.90;;;;;;21226783;28;20428;-73
2022/10/10 07:27:15;;;;;;;0.20;0.00;;;19.90;99.90;;;;;;21226983;28;20383;-72
2022/10/10 07:37:20;;;;;;;0.20;0.00;;;20.30;99.90;;;;;;21244330;28;20399;-72
2022/10/10 07:47:23;;;;;;;0.20;0.00;;;20.70;99.90;;;;;;21236577;28;20395;-72
2022/10/10 07:57:33;;;;;;;0.20;0.00;;;21.10;99.90;;;;;;21256336;28;20386;-71
2022/10/10 08:07:37;;;;;;;0.20;0.00;;;22.20;99.90;;;;;;21236293;28;20463;-70
2022/10/10 08:17:42;;;;;;;0.20;0.00;;;22.60;99.90;;;;;;21256029;28;20398;-70
2022/10/10 08:27:46;;;;;;;0.20;0.00;;;22.40;99.90;;;;;;21257714;28;20919;-71
2022/10/10 08:37:51;;;;;;;0.20;0.00;;;22.20;99.90;;;;;;21257008;28;20403;-69
2022/10/10 08:47:58;;;;;;;0.20;0.00;;;22.20;99.90;;;;;;21255406;28;20435;-71
2022/10/10 08:58:11;;;;;;;0.20;0.00;;;22.50;99.90;;;;;;21253530;28;20923;-71
2022/10/10 09:08:32;;;;;;;0.20;0.00;;;22.20;99.90;;;;;;21235825;28;20394;-68
2022/10/10 09:18:49;;;;;;;0.20;0.00;;;22.60;99.90;;;;;;21250633;28;20417;-71
2022/10/10 09:28:58;;;;;;;0.20;0.00;;;23.10;99.90;;;;;;21234781;28;20394;-69
2022/10/10 09:39:12;;;;;;;0.20;0.10;;;23.30;99.90;;;;;;21252227;28;20498;-70
2022/10/10 09:49:17;;;;;;;0.20;0.00;;;23.00;99.90;;;;;;21251305;28;20444;-70
2022/10/10 09:59:40;;;;;;;0.20;0.00;;;23.90;99.90;;;;;;21232457;28;20753;-70
2022/10/10 10:09:48;;;;;;;0.20;0.00;;;23.90;99.90;;;;;;21230314;28;20387;-70
2022/10/10 10:19:53;;;;;;;0.20;0.00;;;24.40;99.90;;;;;;21230296;28;20429;-70
2022/10/10 10:29:58;;;;;;;0.20;0.00;;;24.30;99.90;;;;;;21248578;28;20819;-70
2022/10/10 10:40:21;;;;;;;0.20;0.00;;;24.60;99.90;;;;;;21244759;28;20852;-69
2022/10/10 10:50:43;;;;;;;0.20;0.00;;;24.60;99.90;;;;;;21243636;28;20386;-70
2022/10/10 11:00:55;;;;;;;0.20;0.10;;;24.80;99.90;;;;;;21246030;28;20411;-70
2022/10/10 11:11:35;;;;;;;0.20;0.00;;;24.80;99.90;;;;;;21228768;27;20423;-70
2022/10/10 11:21:46;;;;;;;0.20;0.00;;;24.10;99.90;;;;;;21187780;28;20395;-71
2022/10/10 11:31:57;;;;;;;0.20;0.00;;;23.40;99.90;;;;;;21234814;28;20408;-72
2022/10/10 11:42:07;;;;;;;0.20;0.03;;;23.50;99.90;;;;;;21219273;27;20401;-70
2022/10/10 11:52:19;;;;;;;0.20;0.00;;;24.20;99.90;;;;;;21237402;28;20380;-70
2022/10/10 12:02:40;;;;;;;0.20;0.00;;;24.60;99.90;;;;;;21269039;28;20395;-71
2022/10/10 12:12:47;;;;;;;0.20;0.00;;;25.70;99.90;;;;;;21313639;28;20388;-70
2022/10/10 12:23:09;;;;;;;0.20;0.00;;;26.00;99.90;;;;;;21325478;28;20380;-70
2022/10/10 12:33:20;;;;;;;0.20;0.00;;;25.60;99.90;;;;;;21314873;27;20394;-70
2022/10/10 12:43:38;;;;;;;0.20;0.00;;;26.30;99.90;;;;;;21164272;28;20396;-70
2022/10/10 12:53:47;;;;;;;0.20;0.00;;;26.10;99.90;;;;;;21150985;28;20400;-71
2022/10/10 13:03:54;;;;;;;0.20;0.00;;;26.40;99.90;;;;;;21231024;28;20394;-70
2022/10/10 13:13:58;;;;;;;0.20;0.10;;;26.90;99.90;;;;;;21251870;28;20402;-70
2022/10/10 13:24:05;;;;;;;0.20;0.00;;;26.40;99.90;;;;;;21233951;28;20386;-71
2022/10/10 13:34:08;;;;;;;0.20;0.00;;;27.00;99.90;;;;;;21233316;28;20437;-71
2022/10/10 13:44:20;;;;;;;0.20;0.00;;;27.40;99.90;;;;;;21249657;28;20387;-70
2022/10/10 13:54:38;;;;;;;0.20;0.00;;;27.20;99.90;;;;;;21249886;27;20441;-70
2022/10/10 14:04:49;;;;;;;0.20;0.00;;;27.30;99.90;;;;;;21246428;28;20467;-70
2022/10/10 14:14:54;;;;;;;0.20;0.00;;;26.50;99.90;;;;;;21245517;28;20398;-70
2022/10/10 14:24:59;;;;;;;0.20;0.00;;;26.30;99.90;;;;;;21245127;28;20404;-71
2022/10/10 14:35:03;;;;;;;0.20;0.00;;;25.30;99.90;;;;;;21225829;28;20458;-72
2022/10/10 14:45:12;;;;;;;0.20;0.00;;;24.80;99.90;;;;;;21243630;28;20394;-72
2022/10/10 14:55:16;;;;;;;0.20;0.00;;;24.40;99.90;;;;;;21238310;28;20394;-70
2022/10/10 15:05:21;;;;;;;0.20;0.00;;;23.80;99.90;;;;;;21246982;27;20404;-69
2022/10/10 15:15:25;;;;;;;0.20;0.00;;;23.90;99.90;;;;;;21242447;27;20436;-70
2022/10/10 15:25:32;;;;;;;0.20;0.00;;;24.00;99.90;;;;;;21237301;28;20383;-69
2022/10/10 15:35:36;;;;;;;0.20;0.00;;;23.60;99.90;;;;;;21239510;28;20401;-70
2022/10/10 15:46:01;;;;;;;0.20;0.00;;;23.50;99.90;;;;;;21236867;28;20905;-69
2022/10/10 15:56:08;;;;;;;0.20;0.10;;;23.40;99.90;;;;;;21237736;28;20394;-71
2022/10/10 16:06:15;;;;;;;0.20;0.00;;;22.90;99.90;;;;;;21228652;28;20390;-71
2022/10/10 16:16:20;;;;;;;0.20;0.00;;;22.90;99.90;;;;;;21254750;28;20407;-69
2022/10/10 16:26:29;;;;;;;0.20;0.00;;;22.90;99.90;;;;;;21236813;28;20390;-71
2022/10/10 16:36:35;;;;;;;0.20;0.00;;;22.70;99.90;;;;;;21236088;28;20398;-71
2022/10/10 16:46:40;;;;;;;0.20;0.10;;;22.40;99.90;;;;;;21251349;28;20386;-71
2022/10/10 16:56:44;;;;;;;0.20;0.00;;;22.30;99.90;;;;;;21250202;28;20451;-72
2022/10/10 17:06:49;;;;;;;0.20;0.00;;;22.10;99.90;;;;;;21232609;28;20391;-71
2022/10/10 17:16:53;;;;;;;0.20;0.00;;;22.10;99.90;;;;;;21248286;28;20432;-69
2022/10/10 17:27:18;;;;;;;0.20;0.00;;;22.10;99.90;;;;;;21249542;28;20403;-70
2022/10/10 17:37:21;;;;;;;0.20;0.00;;;21.90;99.90;;;;;;21249145;28;20423;-69
2022/10/10 17:47:26;;;;;;;0.20;0.00;;;21.80;99.90;;;;;;21249290;28;20399;-71
2022/10/10 17:57:31;;;;;;;0.20;0.00;;;21.70;99.90;;;;;;21229422;28;20390;-70
2022/10/10 18:07:36;;;;;;;0.20;0.03;;;21.70;99.90;;;;;;21226177;28;20394;-71
2022/10/10 18:17:40;;;;;;;0.20;0.00;;;21.60;99.90;;;;;;21230005;28;20436;-70
2022/10/10 18:27:45;;;;;;;0.20;0.00;;;21.40;99.90;;;;;;21246970;28;20390;-72
2022/10/10 18:37:49;;;;;;;0.20;0.00;;;21.40;99.90;;;;;;21247342;28;20589;-72
2022/10/10 18:47:54;;;;;;;0.20;0.00;;;21.20;99.90;;;;;;21243013;28;20383;-73
2022/10/10 18:57:59;;;;;;;0.20;0.00;;;21.40;99.90;;;;;;21225097;28;20402;-71
2022/10/10 19:08:04;;;;;;;0.20;0.00;;;20.90;99.90;;;;;;21242191;28;21212;-71
2022/10/10 19:18:08;;;;;;;0.20;0.00;;;20.70;99.90;;;;;;21206165;28;20399;-71
2022/10/10 19:28:13;;;;;;;0.20;0.00;;;20.50;99.90;;;;;;21238920;28;20383;-71
2022/10/10 19:38:17;;;;;;;0.20;0.00;;;20.40;99.90;;;;;;21238224;28;20399;-71
2022/10/10 19:48:23;;;;;;;0.20;0.00;;;20.40;99.90;;;;;;21223482;28;20394;-71
2022/10/10 19:58:27;;;;;;;0.20;0.00;;;20.30;99.90;;;;;;21241465;28;20413;-71
2022/10/10 20:08:33;;;;;;;0.20;0.05;;;20.20;99.90;;;;;;21240902;28;20395;-71
2022/10/10 20:18:39;;;;;;;0.20;0.00;;;19.90;99.90;;;;;;21240474;28;20402;-71
2022/10/10 20:28:45;;;;;;;0.20;0.00;;;20.00;99.90;;;;;;21222869;28;20408;-69
2022/10/10 20:38:52;;;;;;;0.20;0.00;;;20.00;99.90;;;;;;21240275;28;20402;-70
2022/10/10 20:49:00;;;;;;;0.20;0.00;;;20.10;99.90;;;;;;21234497;28;20382;-70
2022/10/10 20:59:05;;;;;;;0.20;0.00;;;20.40;99.90;;;;;;21236255;28;20421;-71
2022/10/10 21:09:12;;;;;;;0.20;0.00;;;20.60;99.90;;;;;;21253499;28;20386;-71
2022/10/10 21:19:16;;;;;;;0.20;0.00;;;20.80;99.90;;;;;;21250387;28;20477;-71
2022/10/10 21:29:22;;;;;;;0.20;0.00;;;21.00;99.90;;;;;;21234084;28;20398;-71
2022/10/10 21:39:25;;;;;;;0.20;0.00;;;20.70;99.90;;;;;;21254108;28;20407;-71
2022/10/10 21:49:31;;;;;;;0.20;0.00;;;20.40;99.90;;;;;;21251070;28;20383;-70
2022/10/10 21:59:34;;;;;;;0.20;0.00;;;20.20;99.90;;;;;;21250599;28;20394;-71
2022/10/10 22:09:39;;;;;;;0.20;0.10;;;20.20;99.90;;;;;;21249056;28;20386;-70
2022/10/10 22:19:43;;;;;;;0.20;0.00;;;20.20;99.90;;;;;;21246873;28;20398;-71
2022/10/10 22:29:49;;;;;;;0.20;0.00;;;20.30;99.90;;;;;;21248501;28;20395;-71
2022/10/10 22:39:53;;;;;;;0.20;0.00;;;20.20;99.90;;;;;;21229465;28;20399;-71
2022/10/10 22:49:58;;;;;;;0.20;0.00;;;20.20;99.90;;;;;;21228624;28;20408;-71
2022/10/10 23:00:04;;;;;;;0.20;0.00;;;20.00;99.90;;;;;;21230622;28;20466;-71
2022/10/10 23:10:10;;;;;;;0.20;0.00;;;19.70;99.90;;;;;;21248031;28;20398;-72
2022/10/10 23:20:13;;;;;;;0.20;0.00;;;19.40;99.90;;;;;;21247459;28;20394;-72
2022/10/10 23:30:18;;;;;;;0.20;0.00;;;19.10;99.90;;;;;;21247160;28;20387;-71
2022/10/10 23:40:22;;;;;;;0.20;0.00;;;19.00;99.90;;;;;;21229082;28;20421;-72
2022/10/10 23:50:27;;;;;;;0.20;0.00;;;18.70;99.90;;;;;;21246383;28;20387;-72
